Terminal Aerodrome Forecast
Issued by NWS Flagstaff, AZ

Home | Current Version | Previous Version | Text Only | Print | Product List | Glossary On
Versions: 1 2 3 4 5 6 7 8 9 10 11 12 13 14 15 16
054
FTUS45 KFGZ 220520
TAFINW
TAF
KINW 220520Z 2206/2306 25010G15KT P6SM FEW050 SCT100 SCT250
     FM220700 VRB06KT P6SM SCT100 SCT250
     FM221800 20010G20KT P6SM SCT040 OVC060
     FM230000 19012G22KT P6SM SCT030 BKN060=

USA.gov is the U.S. government's official web portal to all federal, state and local government web resources and services.